Main page
METAR-TAF:

METAR-TAF

Airports :

Florence Airport

Florence, Italy

latitude: 43-48N, longitude: 011-12E, elevation: 40 m

Current weather observation

The report was made 41 minutes ago, at 16:50 UTC
Wind 6 kt from the North/Northeast, varying between North/Northwest and Northeast
Temperature 18°C
Humidity 64%
Pressure 1006 hPa
Visibility 10 km or more
Broken clouds at a height of 7000 ft
light rain

METAR: LIRQ 221650Z 02006KT 340V050 9999 -RA BKN070 18/11 Q1006 REDZ

Time: 19:31 (17:31 UTC)

Forecast

The report was made 6 hours and 31 minutes ago, at 11:00 UTC
Forecast valid from 22 at 12 UTC to 23 at 12 UTC
Wind 15 kt from the Northeast
Visibility 10 km or more
Scattered clouds at a height of 4000 ft
Temporary
from 22 at 15 UTC to 23 at 03 UTC
Visibility: 4000 m
rain showers

TAF: LIRQ 221100Z 2212/2312 04015KT 9999 SCT040 TEMPO 2215/2303 4000 SHRA

Weather observations and forecasts of more than 4000 airports (METAR and TAF reports).

The available stations are represented by yellow and red dots on the map.

Hover mouse over dot to see the name of the station.

Then click to see weather observations and forecasts.

To change the map : click on the green buttons with a black cross to zoom in, on the green button with a dash to zoom out, or on the green arrows for adjacent maps.


METAR-TAF: